createdAt,value
2023-03-26T00:00:22.658Z,28.72
2023-03-26T00:04:22.222Z,28.69
2023-03-26T00:08:22.912Z,28.71
2023-03-26T00:12:22.310Z,28.68
2023-03-26T00:16:22.507Z,28.69
2023-03-26T00:20:22.361Z,28.71
2023-03-26T00:24:22.708Z,28.69
2023-03-26T00:28:22.558Z,28.68
2023-03-26T00:32:22.523Z,28.64
2023-03-26T00:36:22.737Z,28.65
2023-03-26T00:40:22.731Z,28.65
2023-03-26T00:44:22.760Z,28.64
2023-03-26T00:48:31.357Z,28.61
2023-03-26T00:52:23.812Z,28.59
2023-03-26T00:56:22.837Z,28.58
2023-03-26T01:00:22.653Z,28.58
2023-03-26T01:04:22.790Z,28.55
2023-03-26T01:08:22.931Z,28.55
2023-03-26T01:12:22.741Z,28.56
2023-03-26T01:16:22.808Z,28.55
2023-03-26T01:20:23.003Z,28.55
2023-03-26T01:24:22.972Z,28.51
2023-03-26T01:28:23.141Z,28.51
2023-03-26T01:32:23.219Z,28.50
2023-03-26T01:36:23.492Z,28.51
2023-03-26T01:40:24.370Z,28.45
2023-03-26T01:44:23.534Z,28.45
2023-03-26T01:48:23.986Z,28.48
2023-03-26T01:52:23.900Z,28.47
2023-03-26T01:56:24.001Z,28.47
2023-03-26T02:00:24.075Z,28.44
2023-03-26T02:04:24.643Z,28.42
2023-03-26T02:08:24.422Z,28.45
2023-03-26T02:12:24.900Z,28.44
2023-03-26T02:16:24.899Z,28.40
2023-03-26T02:20:24.932Z,28.38
2023-03-26T02:24:25.167Z,28.38
2023-03-26T02:28:25.313Z,28.40
2023-03-26T02:32:27.334Z,28.34
2023-03-26T02:36:25.550Z,28.37
2023-03-26T02:40:25.429Z,28.35
2023-03-26T02:44:25.455Z,28.32
2023-03-26T02:48:25.331Z,28.37
2023-03-26T02:52:25.570Z,28.34
2023-03-26T02:56:25.471Z,28.34
2023-03-26T03:00:25.618Z,28.32
2023-03-26T03:04:25.330Z,28.31
2023-03-26T03:08:25.406Z,28.31
2023-03-26T03:12:25.602Z,28.30
2023-03-26T03:16:25.823Z,28.25
2023-03-26T03:20:25.943Z,28.25
2023-03-26T03:24:26.243Z,28.28
2023-03-26T03:28:26.367Z,28.24
2023-03-26T03:32:26.633Z,28.25
2023-03-26T03:36:26.835Z,28.24
2023-03-26T03:40:26.889Z,28.22
2023-03-26T03:44:26.708Z,28.24
2023-03-26T03:48:27.215Z,28.22
2023-03-26T03:52:26.703Z,28.18
2023-03-26T03:56:26.692Z,28.21
2023-03-26T04:00:26.633Z,28.18
2023-03-26T04:04:26.605Z,28.15
2023-03-26T04:08:26.598Z,28.15
2023-03-26T04:12:26.606Z,28.17
2023-03-26T04:16:26.631Z,28.15
2023-03-26T04:20:26.652Z,28.15
2023-03-26T04:24:26.556Z,28.12
2023-03-26T04:28:26.507Z,28.14
2023-03-26T04:32:26.753Z,28.12
2023-03-26T04:36:26.412Z,28.11
2023-03-26T04:40:26.390Z,28.10
2023-03-26T04:44:26.410Z,28.08
2023-03-26T04:48:26.330Z,28.11
2023-03-26T04:52:26.263Z,28.07
2023-03-26T04:56:26.246Z,28.07
2023-03-26T05:00:26.216Z,28.04
2023-03-26T05:04:26.321Z,28.04
2023-03-26T05:08:26.450Z,28.04
2023-03-26T05:12:26.590Z,28.04
2023-03-26T05:16:26.709Z,28.03
2023-03-26T05:20:27.481Z,28.04
2023-03-26T05:24:26.778Z,28.01
2023-03-26T05:28:26.891Z,28.03
2023-03-26T05:32:26.963Z,28.03
2023-03-26T05:36:27.584Z,28.01
2023-03-26T05:40:26.942Z,28.04
2023-03-26T05:44:26.967Z,28.04
2023-03-26T05:48:27.121Z,28.03
2023-03-26T05:52:27.807Z,28.05
2023-03-26T05:56:27.324Z,28.05
2023-03-26T06:00:27.465Z,28.04
2023-03-26T06:04:27.487Z,28.04
2023-03-26T06:08:27.566Z,28.05
2023-03-26T06:12:27.832Z,28.08
2023-03-26T06:16:28.360Z,28.11
2023-03-26T06:20:28.096Z,28.12
2023-03-26T06:24:28.443Z,28.15
2023-03-26T06:28:28.496Z,28.17
2023-03-26T06:32:28.513Z,28.18
2023-03-26T06:36:28.488Z,28.22
2023-03-26T06:40:28.436Z,28.21
2023-03-26T06:44:28.346Z,28.22
2023-03-26T06:48:28.293Z,28.27
2023-03-26T06:52:28.316Z,28.30
2023-03-26T06:56:28.219Z,28.32
2023-03-26T07:00:28.220Z,28.32
2023-03-26T07:04:28.229Z,28.35
2023-03-26T07:08:28.351Z,28.35
2023-03-26T07:12:28.236Z,28.37
2023-03-26T07:16:28.227Z,28.45
2023-03-26T07:20:28.179Z,28.50
2023-03-26T07:24:28.130Z,28.56
2023-03-26T07:28:28.089Z,28.64
2023-03-26T07:32:28.067Z,28.67
2023-03-26T07:36:28.049Z,28.68
2023-03-26T07:40:27.975Z,28.62
2023-03-26T07:44:28.006Z,28.64
2023-03-26T07:48:27.931Z,28.68
2023-03-26T07:52:27.885Z,28.69
2023-03-26T07:56:27.848Z,28.77
2023-03-26T08:00:27.793Z,28.81
2023-03-26T08:04:27.976Z,28.89
2023-03-26T08:08:27.825Z,28.88
2023-03-26T08:12:27.836Z,28.92
2023-03-26T08:16:27.911Z,28.92
2023-03-26T08:20:28.433Z,28.89
2023-03-26T08:24:28.224Z,28.87
2023-03-26T08:28:27.899Z,28.87
2023-03-26T08:32:27.965Z,28.95
2023-03-26T08:36:27.933Z,29.02
2023-03-26T08:40:28.115Z,29.09
2023-03-26T08:44:28.749Z,29.18
2023-03-26T08:48:28.486Z,29.16
2023-03-26T08:52:28.659Z,29.18
2023-03-26T08:56:29.244Z,29.21
2023-03-26T09:00:28.772Z,29.22
2023-03-26T09:04:28.684Z,29.25
2023-03-26T09:08:30.095Z,29.21
2023-03-26T09:12:28.654Z,29.23
2023-03-26T09:16:28.655Z,29.22
2023-03-26T09:20:28.808Z,29.18
2023-03-26T09:24:28.554Z,29.15
2023-03-26T09:28:28.547Z,29.15
2023-03-26T09:32:28.993Z,29.16
2023-03-26T09:36:28.569Z,29.19
2023-03-26T09:40:28.544Z,29.21
2023-03-26T09:44:28.401Z,29.23
2023-03-26T09:48:28.379Z,29.30
2023-03-26T09:52:28.350Z,29.37
2023-03-26T09:56:28.770Z,29.44
2023-03-26T10:00:29.126Z,29.48
2023-03-26T10:04:28.455Z,29.53
2023-03-26T10:08:30.256Z,29.56
2023-03-26T10:12:28.436Z,29.59
2023-03-26T10:16:28.638Z,29.60
2023-03-26T10:20:28.741Z,29.63
2023-03-26T10:24:28.794Z,29.63
2023-03-26T10:28:28.281Z,29.59
2023-03-26T10:32:29.582Z,29.53
2023-03-26T10:36:28.252Z,29.52
2023-03-26T10:40:28.206Z,29.50
2023-03-26T10:44:28.702Z,29.46
2023-03-26T10:48:28.122Z,29.45
2023-03-26T10:52:28.101Z,29.45
2023-03-26T10:56:28.149Z,29.45
2023-03-26T11:00:28.515Z,29.46
2023-03-26T11:04:28.514Z,29.50
2023-03-26T11:08:31.688Z,29.52
2023-03-26T11:12:29.012Z,29.55
2023-03-26T11:16:28.683Z,29.65
2023-03-26T11:20:28.567Z,29.73
2023-03-26T11:24:28.770Z,29.79
2023-03-26T11:28:28.501Z,29.84
2023-03-26T11:32:28.771Z,29.86
2023-03-26T11:36:28.682Z,29.84
2023-03-26T11:40:28.502Z,29.89
2023-03-26T11:44:28.350Z,29.96
2023-03-26T11:48:28.408Z,30.02
2023-03-26T11:52:28.314Z,30.06
2023-03-26T11:56:28.669Z,30.07
2023-03-26T12:00:32.080Z,30.06
2023-03-26T12:04:31.355Z,30.04
2023-03-26T12:08:28.305Z,30.00
2023-03-26T12:12:28.665Z,29.97
2023-03-26T12:16:28.216Z,29.94
2023-03-26T12:20:28.216Z,29.87
2023-03-26T12:24:28.177Z,29.82
2023-03-26T12:28:28.573Z,29.73
2023-03-26T12:32:42.964Z,29.63
2023-03-26T12:36:29.079Z,29.58
2023-03-26T12:40:28.062Z,29.53
2023-03-26T12:44:47.105Z,29.49
2023-03-26T12:48:28.936Z,29.44
2023-03-26T12:52:27.926Z,29.39
2023-03-26T12:56:27.892Z,29.37
2023-03-26T13:00:28.588Z,29.35
2023-03-26T13:04:28.208Z,29.33
2023-03-26T13:08:28.371Z,29.30
2023-03-26T13:12:28.610Z,29.30
2023-03-26T13:16:28.828Z,29.30
2023-03-26T13:20:29.005Z,29.26
2023-03-26T13:24:29.211Z,29.21
2023-03-26T13:28:29.200Z,29.19
2023-03-26T13:32:29.198Z,29.15
2023-03-26T13:36:29.185Z,29.13
2023-03-26T13:40:29.088Z,29.15
2023-03-26T13:44:29.084Z,29.12
2023-03-26T13:48:29.009Z,29.15
2023-03-26T13:52:29.071Z,29.13
2023-03-26T13:56:28.907Z,29.15
2023-03-26T14:00:28.997Z,29.12
2023-03-26T14:04:29.167Z,29.09
2023-03-26T14:08:30.124Z,29.09
2023-03-26T14:12:29.014Z,29.08
2023-03-26T14:16:28.933Z,29.08
2023-03-26T14:20:28.816Z,29.05
2023-03-26T14:24:28.854Z,29.05
2023-03-26T14:28:28.785Z,29.05
2023-03-26T14:32:29.078Z,29.05
2023-03-26T14:36:29.339Z,29.05
2023-03-26T14:40:28.788Z,29.02
2023-03-26T14:44:28.613Z,29.02
2023-03-26T14:48:28.616Z,29.01
2023-03-26T14:52:28.856Z,28.98
2023-03-26T14:56:28.841Z,28.95
2023-03-26T15:00:28.793Z,28.95
2023-03-26T15:04:28.509Z,28.92
2023-03-26T15:08:33.288Z,28.92
2023-03-26T15:12:29.698Z,28.89
2023-03-26T15:16:28.454Z,28.89
2023-03-26T15:20:28.301Z,28.85
2023-03-26T15:24:28.656Z,28.85
2023-03-26T15:28:28.679Z,28.83
2023-03-26T15:32:28.720Z,28.81
2023-03-26T15:36:28.201Z,28.79
2023-03-26T15:40:28.193Z,28.77
2023-03-26T15:44:28.182Z,28.74
2023-03-26T15:48:28.207Z,28.72
2023-03-26T15:52:28.208Z,28.74
2023-03-26T15:56:28.587Z,28.72
2023-03-26T16:00:28.293Z,28.72
2023-03-26T16:04:28.352Z,28.69
2023-03-26T16:08:28.577Z,28.68
2023-03-26T16:12:28.363Z,28.68
2023-03-26T16:16:28.573Z,28.65
2023-03-26T16:20:28.421Z,28.65
2023-03-26T16:24:28.637Z,28.62
2023-03-26T16:28:28.633Z,28.61
2023-03-26T16:32:28.956Z,28.58
2023-03-26T16:36:29.078Z,28.56
2023-03-26T16:40:28.985Z,28.54
2023-03-26T16:44:29.006Z,28.55
2023-03-26T16:48:29.118Z,28.54
2023-03-26T16:52:29.246Z,28.51
2023-03-26T16:56:29.311Z,28.52
2023-03-26T17:00:29.503Z,28.50
2023-03-26T17:04:29.584Z,28.47
2023-03-26T17:08:35.553Z,28.45
2023-03-26T17:12:31.114Z,28.45
2023-03-26T17:16:29.686Z,28.41
2023-03-26T17:20:29.635Z,28.41
2023-03-26T17:24:29.592Z,28.38
2023-03-26T17:28:30.103Z,28.37
2023-03-26T17:32:29.987Z,28.35
2023-03-26T17:36:30.185Z,28.35
2023-03-26T17:40:30.309Z,28.35
2023-03-26T17:44:30.524Z,28.31
2023-03-26T17:48:30.659Z,28.31
2023-03-26T17:52:30.895Z,28.30
2023-03-26T17:56:31.081Z,28.28
2023-03-26T18:00:31.580Z,28.27
2023-03-26T18:04:31.791Z,28.27
2023-03-26T18:08:31.972Z,28.25
2023-03-26T18:12:31.940Z,28.22
2023-03-26T18:16:32.347Z,28.24
2023-03-26T18:20:32.349Z,28.24
2023-03-26T18:24:32.491Z,28.21
2023-03-26T18:28:32.383Z,28.20
2023-03-26T18:32:32.431Z,28.17
2023-03-26T18:36:32.333Z,28.17
2023-03-26T18:40:32.383Z,28.17
2023-03-26T18:44:32.472Z,28.14
2023-03-26T18:48:32.229Z,28.15
2023-03-26T18:52:32.611Z,28.15
2023-03-26T18:56:32.330Z,28.14
2023-03-26T19:00:32.139Z,28.12
2023-03-26T19:04:32.055Z,28.11
2023-03-26T19:08:32.249Z,28.11
2023-03-26T19:12:32.759Z,28.08
2023-03-26T19:16:32.959Z,28.11
2023-03-26T19:20:32.503Z,28.07
2023-03-26T19:24:32.422Z,28.07
2023-03-26T19:28:32.594Z,28.07
2023-03-26T19:32:32.506Z,28.05
2023-03-26T19:36:32.334Z,28.05
2023-03-26T19:40:32.239Z,28.01
2023-03-26T19:44:32.281Z,28.03
2023-03-26T19:48:45.292Z,28.04
2023-03-26T19:52:33.119Z,28.03
2023-03-26T19:56:32.403Z,28.01
2023-03-26T20:00:32.311Z,28.00
2023-03-26T20:04:32.143Z,27.97
2023-03-26T20:08:32.450Z,27.97
2023-03-26T20:12:32.269Z,27.97
2023-03-26T20:16:32.283Z,27.96
2023-03-26T20:20:32.484Z,27.94
2023-03-26T20:24:32.461Z,27.96
2023-03-26T20:28:38.721Z,27.93
2023-03-26T20:32:33.342Z,27.93
2023-03-26T20:36:34.309Z,27.93
2023-03-26T20:40:32.722Z,27.91
2023-03-26T20:44:32.478Z,27.90
2023-03-26T20:48:32.434Z,27.88
2023-03-26T20:52:32.489Z,27.93
2023-03-26T20:56:32.568Z,27.88
2023-03-26T21:00:32.614Z,27.88
2023-03-26T21:04:32.905Z,27.86
2023-03-26T21:08:32.604Z,27.86
2023-03-26T21:12:32.763Z,27.86
2023-03-26T21:16:33.050Z,27.83
2023-03-26T21:20:32.659Z,27.81
2023-03-26T21:24:32.746Z,27.80
2023-03-26T21:28:41.752Z,27.81
2023-03-26T21:32:33.648Z,27.79
2023-03-26T21:36:32.586Z,27.83
2023-03-26T21:40:32.444Z,27.81
2023-03-26T21:44:32.559Z,27.80
2023-03-26T21:48:32.376Z,27.77
2023-03-26T21:52:32.310Z,27.77
2023-03-26T21:56:32.357Z,27.75
2023-03-26T22:00:43.194Z,27.74
2023-03-26T22:04:33.244Z,27.75
2023-03-26T22:08:32.189Z,27.74
2023-03-26T22:12:33.862Z,27.73
2023-03-26T22:16:32.148Z,27.71
2023-03-26T22:20:32.101Z,27.71
2023-03-26T22:24:32.359Z,27.73
2023-03-26T22:28:32.462Z,27.71
2023-03-26T22:32:32.871Z,27.71
2023-03-26T22:36:32.082Z,27.68
2023-03-26T22:40:32.160Z,27.67
2023-03-26T22:44:32.503Z,27.65
2023-03-26T22:48:32.761Z,27.67
2023-03-26T22:52:32.489Z,27.68
2023-03-26T22:56:33.094Z,27.65
2023-03-26T23:00:32.648Z,27.64
2023-03-26T23:04:32.679Z,27.65
2023-03-26T23:08:32.703Z,27.63
2023-03-26T23:12:32.738Z,27.64
2023-03-26T23:16:32.960Z,27.61
2023-03-26T23:20:32.992Z,27.61
2023-03-26T23:24:33.019Z,27.58
2023-03-26T23:28:33.084Z,27.58
2023-03-26T23:32:33.281Z,27.56
2023-03-26T23:36:33.403Z,27.58
2023-03-26T23:40:33.426Z,27.58
2023-03-26T23:44:33.460Z,27.54
2023-03-26T23:48:33.619Z,27.57
2023-03-26T23:52:33.721Z,27.57
2023-03-26T23:56:33.714Z,27.54
